sensor_id;sensor_type;location;lat;lon;timestamp;pressure;altitude;pressure_sealevel;temperature;humidity
13015;BME280;6573;57.696;11.950;2023-05-03T00:00:06;102085.91;;;11.39;100.00
13015;BME280;6573;57.696;11.950;2023-05-03T00:02:35;102096.38;;;11.36;100.00
13015;BME280;6573;57.696;11.950;2023-05-03T00:05:07;102098.06;;;11.28;100.00
13015;BME280;6573;57.696;11.950;2023-05-03T00:07:41;102094.41;;;11.20;100.00
13015;BME280;6573;57.696;11.950;2023-05-03T00:10:10;102084.72;;;11.16;100.00
13015;BME280;6573;57.696;11.950;2023-05-03T00:12:42;102089.16;;;11.20;100.00
13015;BME280;6573;57.696;11.950;2023-05-03T00:15:11;102098.00;;;11.25;100.00
13015;BME280;6573;57.696;11.950;2023-05-03T00:17:39;102099.81;;;11.29;100.00
13015;BME280;6573;57.696;11.950;2023-05-03T00:20:09;102116.56;;;11.34;100.00
13015;BME280;6573;57.696;11.950;2023-05-03T00:22:38;102117.41;;;11.30;100.00
13015;BME280;6573;57.696;11.950;2023-05-03T00:25:07;102113.84;;;11.28;100.00
13015;BME280;6573;57.696;11.950;2023-05-03T00:27:36;102110.34;;;11.29;100.00
13015;BME280;6573;57.696;11.950;2023-05-03T00:30:05;102119.06;;;11.25;100.00
13015;BME280;6573;57.696;11.950;2023-05-03T00:32:34;102117.16;;;11.15;100.00
13015;BME280;6573;57.696;11.950;2023-05-03T00:35:03;102091.22;;;10.85;100.00
13015;BME280;6573;57.696;11.950;2023-05-03T00:37:32;102113.25;;;10.92;100.00
13015;BME280;6573;57.696;11.950;2023-05-03T00:40:01;102109.53;;;10.78;100.00
13015;BME280;6573;57.696;11.950;2023-05-03T00:42:32;102112.97;;;10.74;100.00
13015;BME280;6573;57.696;11.950;2023-05-03T00:45:02;102111.19;;;10.74;100.00
13015;BME280;6573;57.696;11.950;2023-05-03T00:47:32;102119.16;;;10.77;100.00
13015;BME280;6573;57.696;11.950;2023-05-03T00:50:00;102117.56;;;10.87;100.00
13015;BME280;6573;57.696;11.950;2023-05-03T00:52:29;102107.78;;;10.80;100.00
13015;BME280;6573;57.696;11.950;2023-05-03T00:55:00;102116.59;;;10.82;100.00
13015;BME280;6573;57.696;11.950;2023-05-03T00:57:29;102119.16;;;10.76;100.00
13015;BME280;6573;57.696;11.950;2023-05-03T00:59:58;102114.66;;;10.69;100.00
13015;BME280;6573;57.696;11.950;2023-05-03T01:02:27;102116.31;;;10.64;100.00
13015;BME280;6573;57.696;11.950;2023-05-03T01:04:56;102117.13;;;10.61;100.00
13015;BME280;6573;57.696;11.950;2023-05-03T01:07:34;102117.16;;;10.63;100.00
13015;BME280;6573;57.696;11.950;2023-05-03T01:10:18;102111.19;;;10.73;100.00
13015;BME280;6573;57.696;11.950;2023-05-03T01:12:54;102128.91;;;10.83;100.00
13015;BME280;6573;57.696;11.950;2023-05-03T01:15:35;102125.25;;;10.75;100.00
13015;BME280;6573;57.696;11.950;2023-05-03T01:18:10;102126.91;;;10.68;100.00
13015;BME280;6573;57.696;11.950;2023-05-03T01:20:43;102133.34;;;10.84;100.00
13015;BME280;6573;57.696;11.950;2023-05-03T01:23:21;102127.03;;;10.76;100.00
13015;BME280;6573;57.696;11.950;2023-05-03T01:25:56;102132.03;;;10.61;100.00
13015;BME280;6573;57.696;11.950;2023-05-03T01:28:25;102131.91;;;10.55;100.00
13015;BME280;6573;57.696;11.950;2023-05-03T01:30:53;102144.00;;;10.44;100.00
13015;BME280;6573;57.696;11.950;2023-05-03T01:33:29;102139.72;;;10.50;100.00
13015;BME280;6573;57.696;11.950;2023-05-03T01:36:03;102142.28;;;10.46;100.00
13015;BME280;6573;57.696;11.950;2023-05-03T01:38:38;102140.63;;;10.51;100.00
13015;BME280;6573;57.696;11.950;2023-05-03T01:41:11;102146.00;;;10.57;100.00
13015;BME280;6573;57.696;11.950;2023-05-03T01:43:41;102152.88;;;10.49;100.00
13015;BME280;6573;57.696;11.950;2023-05-03T01:46:10;102149.25;;;10.44;100.00
13015;BME280;6573;57.696;11.950;2023-05-03T01:48:40;102149.41;;;10.51;100.00
13015;BME280;6573;57.696;11.950;2023-05-03T01:51:08;102142.34;;;10.49;100.00
13015;BME280;6573;57.696;11.950;2023-05-03T01:53:37;102138.81;;;10.47;100.00
13015;BME280;6573;57.696;11.950;2023-05-03T01:56:08;102147.47;;;10.43;100.00
13015;BME280;6573;57.696;11.950;2023-05-03T01:58:37;102134.97;;;10.29;100.00
13015;BME280;6573;57.696;11.950;2023-05-03T02:01:05;102149.06;;;10.34;100.00
13015;BME280;6573;57.696;11.950;2023-05-03T02:03:34;102159.50;;;10.30;100.00
13015;BME280;6573;57.696;11.950;2023-05-03T02:06:03;102157.81;;;10.33;100.00
13015;BME280;6573;57.696;11.950;2023-05-03T02:08:31;102158.66;;;10.31;100.00
13015;BME280;6573;57.696;11.950;2023-05-03T02:10:59;102161.31;;;10.32;100.00
13015;BME280;6573;57.696;11.950;2023-05-03T02:13:30;102167.53;;;10.37;100.00
13015;BME280;6573;57.696;11.950;2023-05-03T02:15:58;102170.16;;;10.37;100.00
13015;BME280;6573;57.696;11.950;2023-05-03T02:18:27;102168.72;;;10.52;100.00
13015;BME280;6573;57.696;11.950;2023-05-03T02:20:57;102170.09;;;10.34;100.00
13015;BME280;6573;57.696;11.950;2023-05-03T02:23:25;102178.25;;;10.47;100.00
13015;BME280;6573;57.696;11.950;2023-05-03T02:25:54;102165.03;;;10.44;100.00
13015;BME280;6573;57.696;11.950;2023-05-03T02:28:22;102171.06;;;10.38;100.00
13015;BME280;6573;57.696;11.950;2023-05-03T02:30:52;102176.56;;;10.50;100.00
13015;BME280;6573;57.696;11.950;2023-05-03T02:33:20;102184.53;;;10.55;100.00
13015;BME280;6573;57.696;11.950;2023-05-03T02:35:49;102177.59;;;10.57;100.00
13015;BME280;6573;57.696;11.950;2023-05-03T02:38:17;102186.25;;;10.53;100.00
13015;BME280;6573;57.696;11.950;2023-05-03T02:40:45;102182.34;;;10.32;100.00
13015;BME280;6573;57.696;11.950;2023-05-03T02:43:14;102188.41;;;10.27;100.00
13015;BME280;6573;57.696;11.950;2023-05-03T02:45:42;102183.81;;;10.18;100.00
13015;BME280;6573;57.696;11.950;2023-05-03T02:48:11;102197.66;;;10.11;100.00
13015;BME280;6573;57.696;11.950;2023-05-03T02:50:42;102191.28;;;10.00;100.00
13015;BME280;6573;57.696;11.950;2023-05-03T02:53:10;102207.97;;;10.02;100.00
13015;BME280;6573;57.696;11.950;2023-05-03T02:55:38;102204.63;;;10.09;100.00
13015;BME280;6573;57.696;11.950;2023-05-03T02:58:07;102214.47;;;10.16;100.00
13015;BME280;6573;57.696;11.950;2023-05-03T03:00:35;102217.19;;;10.22;100.00
13015;BME280;6573;57.696;11.950;2023-05-03T03:03:04;102212.75;;;10.20;100.00
13015;BME280;6573;57.696;11.950;2023-05-03T03:05:34;102213.56;;;10.14;100.00
13015;BME280;6573;57.696;11.950;2023-05-03T03:08:03;102224.00;;;10.13;100.00
13015;BME280;6573;57.696;11.950;2023-05-03T03:10:31;102218.91;;;10.20;100.00
13015;BME280;6573;57.696;11.950;2023-05-03T03:13:00;102217.16;;;10.19;100.00
13015;BME280;6573;57.696;11.950;2023-05-03T03:15:28;102222.69;;;10.31;100.00
13015;BME280;6573;57.696;11.950;2023-05-03T03:17:57;102218.00;;;10.18;100.00
13015;BME280;6573;57.696;11.950;2023-05-03T03:20:26;102220.19;;;10.00;100.00
13015;BME280;6573;57.696;11.950;2023-05-03T03:22:56;102223.63;;;9.96;100.00
13015;BME280;6573;57.696;11.950;2023-05-03T03:25:24;102223.56;;;9.93;100.00
13015;BME280;6573;57.696;11.950;2023-05-03T03:27:52;102226.69;;;9.77;100.00
13015;BME280;6573;57.696;11.950;2023-05-03T03:30:21;102225.56;;;9.66;100.00
13015;BME280;6573;57.696;11.950;2023-05-03T03:32:49;102235.44;;;9.76;100.00
13015;BME280;6573;57.696;11.950;2023-05-03T03:35:18;102233.72;;;9.78;100.00
13015;BME280;6573;57.696;11.950;2023-05-03T03:37:47;102241.72;;;9.47;100.00
13015;BME280;6573;57.696;11.950;2023-05-03T03:40:17;102249.28;;;9.69;100.00
13015;BME280;6573;57.696;11.950;2023-05-03T03:42:45;102239.56;;;9.65;100.00
13015;BME280;6573;57.696;11.950;2023-05-03T03:45:13;102249.75;;;9.90;100.00
13015;BME280;6573;57.696;11.950;2023-05-03T03:47:42;102243.03;;;10.01;100.00
13015;BME280;6573;57.696;11.950;2023-05-03T03:50:10;102249.91;;;9.96;100.00
13015;BME280;6573;57.696;11.950;2023-05-03T03:52:38;102246.09;;;9.82;100.00
13015;BME280;6573;57.696;11.950;2023-05-03T03:55:07;102226.16;;;9.92;100.00
13015;BME280;6573;57.696;11.950;2023-05-03T03:57:37;102237.88;;;10.07;100.00
13015;BME280;6573;57.696;11.950;2023-05-03T04:00:07;102247.00;;;10.21;100.00
13015;BME280;6573;57.696;11.950;2023-05-03T04:02:37;102244.16;;;9.75;100.00
13015;BME280;6573;57.696;11.950;2023-05-03T04:05:07;102254.31;;;9.60;100.00
13015;BME280;6573;57.696;11.950;2023-05-03T04:07:35;102252.75;;;9.68;100.00
13015;BME280;6573;57.696;11.950;2023-05-03T04:10:05;102247.56;;;9.71;100.00
13015;BME280;6573;57.696;11.950;2023-05-03T04:12:33;102247.75;;;9.78;100.00
13015;BME280;6573;57.696;11.950;2023-05-03T04:15:03;102260.78;;;10.11;100.00
13015;BME280;6573;57.696;11.950;2023-05-03T04:17:31;102260.34;;;9.93;100.00
13015;BME280;6573;57.696;11.950;2023-05-03T04:20:01;102266.22;;;9.82;100.00
13015;BME280;6573;57.696;11.950;2023-05-03T04:22:34;102243.66;;;9.91;100.00
13015;BME280;6573;57.696;11.950;2023-05-03T04:25:02;102255.16;;;9.96;100.00
13015;BME280;6573;57.696;11.950;2023-05-03T04:27:30;102260.63;;;10.05;100.00
13015;BME280;6573;57.696;11.950;2023-05-03T04:30:05;102260.63;;;10.05;100.00
13015;BME280;6573;57.696;11.950;2023-05-03T04:32:33;102258.59;;;9.92;100.00
13015;BME280;6573;57.696;11.950;2023-05-03T04:35:04;102264.72;;;9.93;100.00
13015;BME280;6573;57.696;11.950;2023-05-03T04:37:35;102266.66;;;10.00;100.00
13015;BME280;6573;57.696;11.950;2023-05-03T04:40:05;102264.06;;;10.01;100.00
13015;BME280;6573;57.696;11.950;2023-05-03T04:42:35;102253.03;;;9.80;100.00
13015;BME280;6573;57.696;11.950;2023-05-03T04:45:05;102275.13;;;9.88;100.00
13015;BME280;6573;57.696;11.950;2023-05-03T04:47:35;102278.94;;;10.01;100.00
13015;BME280;6573;57.696;11.950;2023-05-03T04:50:04;102279.91;;;10.04;100.00
13015;BME280;6573;57.696;11.950;2023-05-03T04:52:34;102281.66;;;10.05;100.00
13015;BME280;6573;57.696;11.950;2023-05-03T04:55:03;102281.91;;;10.14;100.00
13015;BME280;6573;57.696;11.950;2023-05-03T04:57:32;102295.25;;;10.23;100.00
13015;BME280;6573;57.696;11.950;2023-05-03T05:00:01;102296.09;;;10.22;100.00
13015;BME280;6573;57.696;11.950;2023-05-03T05:02:34;102260.09;;;10.18;100.00
13015;BME280;6573;57.696;11.950;2023-05-03T05:05:03;102292.31;;;10.50;100.00
13015;BME280;6573;57.696;11.950;2023-05-03T05:07:31;102306.56;;;10.60;100.00
13015;BME280;6573;57.696;11.950;2023-05-03T05:10:00;102307.69;;;10.71;100.00
13015;BME280;6573;57.696;11.950;2023-05-03T05:12:28;102304.19;;;10.72;100.00
13015;BME280;6573;57.696;11.950;2023-05-03T05:14:57;102303.63;;;10.86;100.00
13015;BME280;6573;57.696;11.950;2023-05-03T05:17:25;102295.56;;;10.79;100.00
13015;BME280;6573;57.696;11.950;2023-05-03T05:19:55;102306.28;;;10.88;100.00
13015;BME280;6573;57.696;11.950;2023-05-03T05:22:23;102308.06;;;10.89;100.00
13015;BME280;6573;57.696;11.950;2023-05-03T05:24:52;102320.34;;;10.90;100.00
13015;BME280;6573;57.696;11.950;2023-05-03T05:27:20;102321.53;;;11.05;100.00
13015;BME280;6573;57.696;11.950;2023-05-03T05:29:49;102311.59;;;10.91;100.00
13015;BME280;6573;57.696;11.950;2023-05-03T05:32:17;102323.88;;;10.92;100.00
13015;BME280;6573;57.696;11.950;2023-05-03T05:34:46;102326.88;;;11.09;100.00
13015;BME280;6573;57.696;11.950;2023-05-03T05:37:20;102329.66;;;11.16;100.00
13015;BME280;6573;57.696;11.950;2023-05-03T05:39:48;102335.03;;;11.22;100.00
13015;BME280;6573;57.696;11.950;2023-05-03T05:42:17;102331.47;;;11.20;100.00
13015;BME280;6573;57.696;11.950;2023-05-03T05:44:45;102320.94;;;11.20;100.00
13015;BME280;6573;57.696;11.950;2023-05-03T05:47:13;102338.63;;;11.27;100.00
13015;BME280;6573;57.696;11.950;2023-05-03T05:49:42;102338.69;;;11.30;100.00
13015;BME280;6573;57.696;11.950;2023-05-03T05:52:10;102342.31;;;11.35;100.00
13015;BME280;6573;57.696;11.950;2023-05-03T05:54:40;102338.84;;;11.39;100.00
13015;BME280;6573;57.696;11.950;2023-05-03T05:57:08;102336.56;;;11.57;100.00
13015;BME280;6573;57.696;11.950;2023-05-03T05:59:38;102339.34;;;11.66;100.00
13015;BME280;6573;57.696;11.950;2023-05-03T06:02:12;102334.00;;;11.62;100.00
13015;BME280;6573;57.696;11.950;2023-05-03T06:04:42;102358.91;;;11.78;100.00
13015;BME280;6573;57.696;11.950;2023-05-03T06:07:11;102353.47;;;11.68;100.00
13015;BME280;6573;57.696;11.950;2023-05-03T06:09:41;102366.19;;;11.94;100.00
13015;BME280;6573;57.696;11.950;2023-05-03T06:12:09;102371.47;;;11.94;100.00
13015;BME280;6573;57.696;11.950;2023-05-03T06:14:38;102366.38;;;12.06;100.00
13015;BME280;6573;57.696;11.950;2023-05-03T06:17:17;102370.19;;;12.23;100.00
13015;BME280;6573;57.696;11.950;2023-05-03T06:19:46;102370.94;;;12.14;100.00
13015;BME280;6573;57.696;11.950;2023-05-03T06:22:15;102369.06;;;12.09;100.00
13015;BME280;6573;57.696;11.950;2023-05-03T06:24:44;102364.09;;;12.25;100.00
13015;BME280;6573;57.696;11.950;2023-05-03T06:27:13;102373.03;;;12.35;100.00
13015;BME280;6573;57.696;11.950;2023-05-03T06:29:41;102378.13;;;12.26;100.00
13015;BME280;6573;57.696;11.950;2023-05-03T06:32:10;102377.47;;;12.39;100.00
13015;BME280;6573;57.696;11.950;2023-05-03T06:34:39;102366.81;;;12.33;100.00
13015;BME280;6573;57.696;11.950;2023-05-03T06:37:07;102375.09;;;12.57;100.00
13015;BME280;6573;57.696;11.950;2023-05-03T06:39:35;102377.09;;;12.76;100.00
13015;BME280;6573;57.696;11.950;2023-05-03T06:42:05;102380.69;;;12.80;100.00
13015;BME280;6573;57.696;11.950;2023-05-03T06:44:34;102376.28;;;12.80;100.00
13015;BME280;6573;57.696;11.950;2023-05-03T06:47:02;102379.84;;;12.82;100.00
13015;BME280;6573;57.696;11.950;2023-05-03T06:49:31;102382.72;;;13.02;100.00
13015;BME280;6573;57.696;11.950;2023-05-03T06:51:59;102385.59;;;13.19;100.00
13015;BME280;6573;57.696;11.950;2023-05-03T06:54:28;102394.50;;;13.27;100.00
13015;BME280;6573;57.696;11.950;2023-05-03T06:56:56;102380.22;;;13.13;100.00
13015;BME280;6573;57.696;11.950;2023-05-03T06:59:26;102378.47;;;13.12;100.00
13015;BME280;6573;57.696;11.950;2023-05-03T07:01:55;102396.09;;;13.13;100.00
13015;BME280;6573;57.696;11.950;2023-05-03T07:04:23;102397.13;;;13.25;100.00
13015;BME280;6573;57.696;11.950;2023-05-03T07:06:51;102392.72;;;13.26;100.00
13015;BME280;6573;57.696;11.950;2023-05-03T07:09:22;102399.97;;;13.42;100.00
13015;BME280;6573;57.696;11.950;2023-05-03T07:12:07;102396.66;;;13.64;100.00
13015;BME280;6573;57.696;11.950;2023-05-03T07:14:37;102391.47;;;13.73;100.00
13015;BME280;6573;57.696;11.950;2023-05-03T07:17:08;102392.47;;;13.84;100.00
13015;BME280;6573;57.696;11.950;2023-05-03T07:19:37;102394.28;;;13.93;100.00
13015;BME280;6573;57.696;11.950;2023-05-03T07:22:05;102402.25;;;13.97;100.00
13015;BME280;6573;57.696;11.950;2023-05-03T07:24:34;102397.78;;;13.90;100.00
13015;BME280;6573;57.696;11.950;2023-05-03T07:27:02;102403.66;;;13.59;100.00
13015;BME280;6573;57.696;11.950;2023-05-03T07:29:31;102402.63;;;13.43;100.00
13015;BME280;6573;57.696;11.950;2023-05-03T07:32:01;102407.38;;;13.76;100.00
13015;BME280;6573;57.696;11.950;2023-05-03T07:34:29;102405.75;;;13.93;100.00
13015;BME280;6573;57.696;11.950;2023-05-03T07:36:58;102393.47;;;14.04;100.00
13015;BME280;6573;57.696;11.950;2023-05-03T07:39:26;102391.84;;;14.21;100.00
13015;BME280;6573;57.696;11.950;2023-05-03T07:41:55;102398.97;;;14.25;100.00
13015;BME280;6573;57.696;11.950;2023-05-03T07:44:23;102397.28;;;14.37;100.00
13015;BME280;6573;57.696;11.950;2023-05-03T07:46:51;102405.03;;;14.11;100.00
13015;BME280;6573;57.696;11.950;2023-05-03T07:49:21;102382.28;;;14.31;100.00
13015;BME280;6573;57.696;11.950;2023-05-03T07:51:50;102385.78;;;14.32;100.00
13015;BME280;6573;57.696;11.950;2023-05-03T07:54:19;102395.56;;;14.42;100.00
13015;BME280;6573;57.696;11.950;2023-05-03T07:56:47;102409.72;;;14.47;100.00
13015;BME280;6573;57.696;11.950;2023-05-03T07:59:15;102404.38;;;14.38;100.00
13015;BME280;6573;57.696;11.950;2023-05-03T08:01:44;102411.50;;;14.48;100.00
13015;BME280;6573;57.696;11.950;2023-05-03T08:04:12;102409.81;;;14.62;100.00
13015;BME280;6573;57.696;11.950;2023-05-03T08:06:42;102417.25;;;15.35;100.00
13015;BME280;6573;57.696;11.950;2023-05-03T08:09:11;102408.53;;;15.82;100.00
13015;BME280;6573;57.696;11.950;2023-05-03T08:11:39;102408.53;;;16.18;100.00
13015;BME280;6573;57.696;11.950;2023-05-03T08:14:10;102416.38;;;17.01;100.00
13015;BME280;6573;57.696;11.950;2023-05-03T08:16:38;102418.84;;;17.39;100.00
13015;BME280;6573;57.696;11.950;2023-05-03T08:19:07;102410.03;;;17.22;100.00
13015;BME280;6573;57.696;11.950;2023-05-03T08:21:35;102420.69;;;17.22;100.00
13015;BME280;6573;57.696;11.950;2023-05-03T08:24:05;102413.56;;;17.30;100.00
13015;BME280;6573;57.696;11.950;2023-05-03T08:26:34;102415.53;;;16.86;100.00
13015;BME280;6573;57.696;11.950;2023-05-03T08:29:03;102420.88;;;16.73;100.00
13015;BME280;6573;57.696;11.950;2023-05-03T08:31:31;102395.03;;;17.13;100.00
13015;BME280;6573;57.696;11.950;2023-05-03T08:34:01;102414.22;;;17.74;100.00
13015;BME280;6573;57.696;11.950;2023-05-03T08:36:29;102415.22;;;17.58;95.69
13015;BME280;6573;57.696;11.950;2023-05-03T08:38:59;102415.41;;;17.13;97.06
13015;BME280;6573;57.696;11.950;2023-05-03T08:41:30;102419.69;;;17.48;99.08
13015;BME280;6573;57.696;11.950;2023-05-03T08:43:59;102414.56;;;17.03;93.76
13015;BME280;6573;57.696;11.950;2023-05-03T08:46:30;102420.88;;;16.70;93.64
13015;BME280;6573;57.696;11.950;2023-05-03T08:49:03;102424.22;;;17.27;98.10
13015;BME280;6573;57.696;11.950;2023-05-03T08:51:33;102429.44;;;17.51;94.43
13015;BME280;6573;57.696;11.950;2023-05-03T08:54:01;102429.63;;;17.00;91.36
13015;BME280;6573;57.696;11.950;2023-05-03T08:56:32;102421.75;;;16.78;94.37
13015;BME280;6573;57.696;11.950;2023-05-03T08:59:04;102433.06;;;17.32;95.17
13015;BME280;6573;57.696;11.950;2023-05-03T09:01:35;102429.47;;;17.42;96.68
13015;BME280;6573;57.696;11.950;2023-05-03T09:04:04;102436.56;;;17.43;92.54
13015;BME280;6573;57.696;11.950;2023-05-03T09:06:33;102433.16;;;17.14;93.15
13015;BME280;6573;57.696;11.950;2023-05-03T09:09:04;102446.47;;;17.06;93.89
13015;BME280;6573;57.696;11.950;2023-05-03T09:11:36;102448.28;;;16.91;93.37
13015;BME280;6573;57.696;11.950;2023-05-03T09:14:09;102442.16;;;16.61;95.97
13015;BME280;6573;57.696;11.950;2023-05-03T09:16:38;102436.81;;;16.76;94.79
13015;BME280;6573;57.696;11.950;2023-05-03T09:19:07;102449.13;;;17.14;95.46
13015;BME280;6573;57.696;11.950;2023-05-03T09:21:40;102447.28;;;17.22;93.23
13015;BME280;6573;57.696;11.950;2023-05-03T09:24:12;102451.94;;;16.52;94.22
13015;BME280;6573;57.696;11.950;2023-05-03T09:26:44;102454.56;;;16.11;95.30
13015;BME280;6573;57.696;11.950;2023-05-03T09:29:26;102433.28;;;16.35;96.09
13015;BME280;6573;57.696;11.950;2023-05-03T09:32:00;102452.78;;;16.49;94.79
13015;BME280;6573;57.696;11.950;2023-05-03T09:34:30;102456.31;;;16.75;95.63
13015;BME280;6573;57.696;11.950;2023-05-03T09:36:59;102449.25;;;16.68;92.98
13015;BME280;6573;57.696;11.950;2023-05-03T09:39:27;102459.88;;;16.17;95.99
13015;BME280;6573;57.696;11.950;2023-05-03T09:41:57;102468.72;;;16.22;96.19
13015;BME280;6573;57.696;11.950;2023-05-03T09:44:39;102458.09;;;16.73;91.52
13015;BME280;6573;57.696;11.950;2023-05-03T09:47:10;102461.66;;;16.27;92.19
13015;BME280;6573;57.696;11.950;2023-05-03T09:49:38;102465.19;;;16.74;93.86
13015;BME280;6573;57.696;11.950;2023-05-03T09:52:07;102442.16;;;16.64;88.07
13015;BME280;6573;57.696;11.950;2023-05-03T09:54:37;102453.69;;;16.62;86.53
13015;BME280;6573;57.696;11.950;2023-05-03T09:57:08;102466.97;;;16.39;86.44
13015;BME280;6573;57.696;11.950;2023-05-03T09:59:37;102458.09;;;16.31;86.15
13015;BME280;6573;57.696;11.950;2023-05-03T10:02:06;102459.88;;;16.29;86.58
13015;BME280;6573;57.696;11.950;2023-05-03T10:04:38;102470.47;;;16.50;86.04
13015;BME280;6573;57.696;11.950;2023-05-03T10:07:11;102468.75;;;16.58;86.02
13015;BME280;6573;57.696;11.950;2023-05-03T10:09:42;102465.19;;;16.17;85.10
13015;BME280;6573;57.696;11.950;2023-05-03T10:12:13;102473.16;;;16.25;86.78
13015;BME280;6573;57.696;11.950;2023-05-03T10:14:45;102466.97;;;16.53;85.56
13015;BME280;6573;57.696;11.950;2023-05-03T10:17:17;102479.34;;;16.34;83.61
13015;BME280;6573;57.696;11.950;2023-05-03T10:20:09;102484.63;;;15.95;85.08
13015;BME280;6573;57.696;11.950;2023-05-03T10:23:08;102481.13;;;16.05;85.92
13015;BME280;6573;57.696;11.950;2023-05-03T10:25:37;102472.28;;;16.27;86.74
13015;BME280;6573;57.696;11.950;2023-05-03T10:28:08;102480.22;;;16.29;85.88
13015;BME280;6573;57.696;11.950;2023-05-03T10:30:37;102472.28;;;16.42;85.41
13015;BME280;6573;57.696;11.950;2023-05-03T10:33:29;102478.47;;;16.14;84.97
13015;BME280;6573;57.696;11.950;2023-05-03T10:36:04;102481.09;;;16.11;84.61
13015;BME280;6573;57.696;11.950;2023-05-03T10:38:36;102477.56;;;16.18;84.35
13015;BME280;6573;57.696;11.950;2023-05-03T10:41:05;102471.38;;;16.10;83.70
13015;BME280;6573;57.696;11.950;2023-05-03T10:43:44;102483.75;;;15.99;82.58
13015;BME280;6573;57.696;11.950;2023-05-03T10:46:32;102484.59;;;15.86;83.19
13015;BME280;6573;57.696;11.950;2023-05-03T10:49:19;102479.31;;;15.98;82.44
13015;BME280;6573;57.696;11.950;2023-05-03T10:51:49;102497.03;;;16.02;83.17
13015;BME280;6573;57.696;11.950;2023-05-03T10:54:17;102491.69;;;15.84;82.25
13015;BME280;6573;57.696;11.950;2023-05-03T10:56:50;102484.66;;;16.10;83.06
13015;BME280;6573;57.696;11.950;2023-05-03T10:59:21;102475.78;;;16.02;82.49
13015;BME280;6573;57.696;11.950;2023-05-03T11:01:51;102481.97;;;16.01;83.00
13015;BME280;6573;57.696;11.950;2023-05-03T11:04:35;102494.41;;;16.22;83.18
13015;BME280;6573;57.696;11.950;2023-05-03T11:07:06;102495.28;;;16.16;83.46
13015;BME280;6573;57.696;11.950;2023-05-03T11:09:36;102478.44;;;15.94;83.21
13015;BME280;6573;57.696;11.950;2023-05-03T11:12:06;102499.69;;;16.05;83.57
13015;BME280;6573;57.696;11.950;2023-05-03T11:14:37;102498.78;;;15.97;83.79
13015;BME280;6573;57.696;11.950;2023-05-03T11:17:06;102491.69;;;15.93;84.60
13015;BME280;6573;57.696;11.950;2023-05-03T11:19:34;102498.81;;;16.18;84.23
13015;BME280;6573;57.696;11.950;2023-05-03T11:22:03;102499.72;;;16.17;81.97
13015;BME280;6573;57.696;11.950;2023-05-03T11:24:32;102505.91;;;16.24;82.22
13015;BME280;6573;57.696;11.950;2023-05-03T11:27:00;102505.91;;;16.40;82.76
13015;BME280;6573;57.696;11.950;2023-05-03T11:29:34;102496.16;;;16.23;82.55
13015;BME280;6573;57.696;11.950;2023-05-03T11:32:07;102502.31;;;15.99;83.22
13015;BME280;6573;57.696;11.950;2023-05-03T11:34:38;102505.91;;;16.31;82.71
13015;BME280;6573;57.696;11.950;2023-05-03T11:37:07;102496.16;;;16.50;81.85
13015;BME280;6573;57.696;11.950;2023-05-03T11:39:36;102491.78;;;16.56;81.69
13015;BME280;6573;57.696;11.950;2023-05-03T11:42:05;102495.31;;;16.55;81.68
13015;BME280;6573;57.696;11.950;2023-05-03T11:44:34;102497.06;;;16.17;80.33
13015;BME280;6573;57.696;11.950;2023-05-03T11:47:04;102482.00;;;16.22;80.08
13015;BME280;6573;57.696;11.950;2023-05-03T11:49:33;102497.06;;;16.32;79.46
13015;BME280;6573;57.696;11.950;2023-05-03T11:52:02;102498.81;;;16.33;78.30
13015;BME280;6573;57.696;11.950;2023-05-03T11:54:30;102491.72;;;16.23;79.05
13015;BME280;6573;57.696;11.950;2023-05-03T11:56:58;102511.22;;;16.10;78.13
13015;BME280;6573;57.696;11.950;2023-05-03T11:59:35;102502.34;;;16.11;77.78
13015;BME280;6573;57.696;11.950;2023-05-03T12:02:05;102492.66;;;16.37;77.43
13015;BME280;6573;57.696;11.950;2023-05-03T12:04:36;102495.28;;;16.34;77.40
13015;BME280;6573;57.696;11.950;2023-05-03T12:07:08;102493.50;;;16.30;77.92
13015;BME280;6573;57.696;11.950;2023-05-03T12:09:39;102490.88;;;16.39;77.41
13015;BME280;6573;57.696;11.950;2023-05-03T12:12:17;102495.31;;;16.54;78.72
13015;BME280;6573;57.696;11.950;2023-05-03T12:14:56;102492.63;;;16.89;78.18
13015;BME280;6573;57.696;11.950;2023-05-03T12:17:37;102488.22;;;16.66;77.44
13015;BME280;6573;57.696;11.950;2023-05-03T12:20:16;102489.97;;;16.70;78.23
13015;BME280;6573;57.696;11.950;2023-05-03T12:22:48;102493.56;;;16.54;78.20
13015;BME280;6573;57.696;11.950;2023-05-03T12:25:18;102501.50;;;16.63;77.76
13015;BME280;6573;57.696;11.950;2023-05-03T12:27:53;102500.59;;;16.67;77.58
13015;BME280;6573;57.696;11.950;2023-05-03T12:30:41;102499.72;;;16.49;77.30
13015;BME280;6573;57.696;11.950;2023-05-03T12:33:13;102505.91;;;16.67;77.30
13015;BME280;6573;57.696;11.950;2023-05-03T12:35:47;102488.19;;;16.48;77.37
13015;BME280;6573;57.696;11.950;2023-05-03T12:38:20;102509.50;;;16.69;78.00
13015;BME280;6573;57.696;11.950;2023-05-03T12:40:50;102508.56;;;16.67;78.83
13015;BME280;6573;57.696;11.950;2023-05-03T12:43:20;102500.59;;;16.70;79.00
13015;BME280;6573;57.696;11.950;2023-05-03T12:45:48;102504.13;;;16.48;79.46
13015;BME280;6573;57.696;11.950;2023-05-03T12:48:38;102523.63;;;16.29;80.58
13015;BME280;6573;57.696;11.950;2023-05-03T12:51:11;102504.13;;;16.21;79.59
13015;BME280;6573;57.696;11.950;2023-05-03T12:53:43;102511.25;;;16.70;80.54
13015;BME280;6573;57.696;11.950;2023-05-03T12:56:13;102513.00;;;16.80;79.74
13015;BME280;6573;57.696;11.950;2023-05-03T12:58:42;102498.81;;;16.72;77.91
13015;BME280;6573;57.696;11.950;2023-05-03T13:01:33;102506.81;;;16.65;78.15